sensor_id;sensor_type;location;lat;lon;timestamp;noise_LAeq;noise_LA_min;noise_LA_max;noise_LA01;noise_LA95
67398;Laerm;57728;50.448;18.824;2024-01-30T00:00:41;35.51;33.85;48.64;;
67398;Laerm;57728;50.448;18.824;2024-01-30T00:02:42;35.02;33.61;42.47;;
67398;Laerm;57728;50.448;18.824;2024-01-30T00:04:44;36.16;33.80;53.45;;
67398;Laerm;57728;50.448;18.824;2024-01-30T00:06:46;36.60;33.96;56.39;;
67398;Laerm;57728;50.448;18.824;2024-01-30T00:08:47;35.67;33.79;50.64;;
67398;Laerm;57728;50.448;18.824;2024-01-30T00:10:50;38.72;33.81;58.19;;
67398;Laerm;57728;50.448;18.824;2024-01-30T00:12:52;35.66;33.83;48.06;;
67398;Laerm;57728;50.448;18.824;2024-01-30T00:14:53;38.19;33.95;58.32;;
67398;Laerm;57728;50.448;18.824;2024-01-30T00:16:57;39.37;33.72;66.07;;
67398;Laerm;57728;50.448;18.824;2024-01-30T00:18:59;40.14;33.49;64.35;;
67398;Laerm;57728;50.448;18.824;2024-01-30T00:21:00;38.83;33.61;59.89;;
67398;Laerm;57728;50.448;18.824;2024-01-30T00:23:02;38.22;33.89;57.09;;
67398;Laerm;57728;50.448;18.824;2024-01-30T00:25:03;37.26;33.65;55.02;;
67398;Laerm;57728;50.448;18.824;2024-01-30T00:27:05;35.89;33.50;58.32;;
67398;Laerm;57728;50.448;18.824;2024-01-30T00:29:07;37.59;33.84;58.76;;
67398;Laerm;57728;50.448;18.824;2024-01-30T00:31:09;39.10;33.80;61.10;;
67398;Laerm;57728;50.448;18.824;2024-01-30T00:33:13;36.89;33.74;54.22;;
67398;Laerm;57728;50.448;18.824;2024-01-30T00:35:16;37.45;33.94;63.09;;
67398;Laerm;57728;50.448;18.824;2024-01-30T00:37:18;37.22;33.96;55.07;;
67398;Laerm;57728;50.448;18.824;2024-01-30T00:39:19;36.28;33.91;54.58;;
67398;Laerm;57728;50.448;18.824;2024-01-30T00:41:21;38.25;33.54;57.92;;
67398;Laerm;57728;50.448;18.824;2024-01-30T00:43:22;37.92;33.72;54.36;;
67398;Laerm;57728;50.448;18.824;2024-01-30T00:45:25;37.35;33.97;56.34;;
67398;Laerm;57728;50.448;18.824;2024-01-30T00:47:27;35.68;33.75;49.75;;
67398;Laerm;57728;50.448;18.824;2024-01-30T00:49:30;37.50;33.68;53.96;;
67398;Laerm;57728;50.448;18.824;2024-01-30T00:51:31;36.07;33.57;53.42;;
67398;Laerm;57728;50.448;18.824;2024-01-30T00:53:33;35.91;33.65;49.70;;
67398;Laerm;57728;50.448;18.824;2024-01-30T00:55:35;36.02;33.68;53.64;;
67398;Laerm;57728;50.448;18.824;2024-01-30T00:57:36;35.74;33.64;49.19;;
67398;Laerm;57728;50.448;18.824;2024-01-30T00:59:38;35.04;33.75;44.19;;
67398;Laerm;57728;50.448;18.824;2024-01-30T01:01:39;35.64;33.86;51.32;;
67398;Laerm;57728;50.448;18.824;2024-01-30T01:03:41;35.26;33.92;45.46;;
67398;Laerm;57728;50.448;18.824;2024-01-30T01:05:45;35.62;33.81;50.02;;
67398;Laerm;57728;50.448;18.824;2024-01-30T01:07:46;35.92;33.71;53.51;;
67398;Laerm;57728;50.448;18.824;2024-01-30T01:09:49;35.68;33.96;47.16;;
67398;Laerm;57728;50.448;18.824;2024-01-30T01:11:50;37.11;33.82;58.96;;
67398;Laerm;57728;50.448;18.824;2024-01-30T01:13:52;36.13;33.72;51.54;;
67398;Laerm;57728;50.448;18.824;2024-01-30T01:15:53;35.52;33.95;52.98;;
67398;Laerm;57728;50.448;18.824;2024-01-30T01:17:55;35.38;33.99;45.85;;
67398;Laerm;57728;50.448;18.824;2024-01-30T01:19:56;36.30;33.97;54.17;;
67398;Laerm;57728;50.448;18.824;2024-01-30T01:21:58;35.67;33.92;48.99;;
67398;Laerm;57728;50.448;18.824;2024-01-30T01:24:00;36.18;34.12;51.75;;
67398;Laerm;57728;50.448;18.824;2024-01-30T01:26:01;35.79;33.86;49.03;;
67398;Laerm;57728;50.448;18.824;2024-01-30T01:28:02;35.85;33.95;48.14;;
67398;Laerm;57728;50.448;18.824;2024-01-30T01:30:08;35.61;33.93;48.32;;
67398;Laerm;57728;50.448;18.824;2024-01-30T01:32:10;35.74;34.02;51.27;;
67398;Laerm;57728;50.448;18.824;2024-01-30T01:34:12;36.68;34.05;53.00;;
67398;Laerm;57728;50.448;18.824;2024-01-30T01:36:14;35.63;33.84;47.74;;
67398;Laerm;57728;50.448;18.824;2024-01-30T01:38:16;35.69;33.92;51.17;;
67398;Laerm;57728;50.448;18.824;2024-01-30T01:40:17;35.18;33.63;44.20;;
67398;Laerm;57728;50.448;18.824;2024-01-30T01:42:19;36.78;33.98;56.06;;
67398;Laerm;57728;50.448;18.824;2024-01-30T01:44:20;35.72;33.73;52.49;;
67398;Laerm;57728;50.448;18.824;2024-01-30T01:46:22;36.80;33.84;52.17;;
67398;Laerm;57728;50.448;18.824;2024-01-30T01:48:26;36.08;33.59;54.20;;
67398;Laerm;57728;50.448;18.824;2024-01-30T01:50:28;35.28;34.02;42.97;;
67398;Laerm;57728;50.448;18.824;2024-01-30T01:52:29;35.84;33.96;54.35;;
67398;Laerm;57728;50.448;18.824;2024-01-30T01:54:32;36.70;33.96;52.30;;
67398;Laerm;57728;50.448;18.824;2024-01-30T01:56:34;36.90;33.75;57.13;;
67398;Laerm;57728;50.448;18.824;2024-01-30T01:58:37;35.59;33.91;49.42;;
67398;Laerm;57728;50.448;18.824;2024-01-30T02:00:39;36.51;33.97;56.52;;
67398;Laerm;57728;50.448;18.824;2024-01-30T02:02:45;37.06;34.08;55.19;;
67398;Laerm;57728;50.448;18.824;2024-01-30T02:04:46;36.29;33.79;51.11;;
67398;Laerm;57728;50.448;18.824;2024-01-30T02:06:49;36.62;33.91;57.96;;
67398;Laerm;57728;50.448;18.824;2024-01-30T02:08:51;35.61;33.87;47.74;;
67398;Laerm;57728;50.448;18.824;2024-01-30T02:10:52;36.31;33.88;54.00;;
67398;Laerm;57728;50.448;18.824;2024-01-30T02:12:54;35.50;33.87;50.72;;
67398;Laerm;57728;50.448;18.824;2024-01-30T02:14:55;35.38;33.94;48.57;;
67398;Laerm;57728;50.448;18.824;2024-01-30T02:16:56;35.64;33.65;54.62;;
67398;Laerm;57728;50.448;18.824;2024-01-30T02:18:58;35.88;33.96;51.98;;
67398;Laerm;57728;50.448;18.824;2024-01-30T02:21:04;35.46;33.82;47.09;;
67398;Laerm;57728;50.448;18.824;2024-01-30T02:23:09;35.37;33.94;44.23;;
67398;Laerm;57728;50.448;18.824;2024-01-30T02:25:12;35.82;33.90;49.79;;
67398;Laerm;57728;50.448;18.824;2024-01-30T02:27:13;36.10;33.85;48.73;;
67398;Laerm;57728;50.448;18.824;2024-01-30T02:29:14;37.02;33.92;55.40;;
67398;Laerm;57728;50.448;18.824;2024-01-30T02:31:16;36.06;33.83;52.52;;
67398;Laerm;57728;50.448;18.824;2024-01-30T02:33:19;35.77;33.80;50.64;;
67398;Laerm;57728;50.448;18.824;2024-01-30T02:35:20;36.41;33.91;51.91;;
67398;Laerm;57728;50.448;18.824;2024-01-30T02:37:21;35.43;33.97;45.72;;
67398;Laerm;57728;50.448;18.824;2024-01-30T02:39:23;37.04;33.93;54.96;;
67398;Laerm;57728;50.448;18.824;2024-01-30T02:41:24;35.43;34.01;48.51;;
67398;Laerm;57728;50.448;18.824;2024-01-30T02:43:25;35.24;33.71;46.17;;
67398;Laerm;57728;50.448;18.824;2024-01-30T02:45:27;35.54;33.69;51.31;;
67398;Laerm;57728;50.448;18.824;2024-01-30T02:47:29;35.07;33.97;39.94;;
67398;Laerm;57728;50.448;18.824;2024-01-30T02:49:30;35.19;33.86;42.34;;
67398;Laerm;57728;50.448;18.824;2024-01-30T02:51:32;35.83;33.65;48.30;;
67398;Laerm;57728;50.448;18.824;2024-01-30T02:53:33;35.48;33.72;50.84;;
67398;Laerm;57728;50.448;18.824;2024-01-30T02:55:34;34.93;33.81;39.77;;
67398;Laerm;57728;50.448;18.824;2024-01-30T02:57:36;34.96;33.58;38.77;;
67398;Laerm;57728;50.448;18.824;2024-01-30T02:59:37;35.58;33.88;49.89;;
67398;Laerm;57728;50.448;18.824;2024-01-30T03:01:45;35.44;33.88;50.15;;
67398;Laerm;57728;50.448;18.824;2024-01-30T03:03:48;35.25;33.71;45.10;;
67398;Laerm;57728;50.448;18.824;2024-01-30T03:05:49;35.30;33.81;45.55;;
67398;Laerm;57728;50.448;18.824;2024-01-30T03:07:50;35.26;33.84;45.47;;
67398;Laerm;57728;50.448;18.824;2024-01-30T03:09:52;36.19;33.91;53.29;;
67398;Laerm;57728;50.448;18.824;2024-01-30T03:11:53;35.84;33.55;48.92;;
67398;Laerm;57728;50.448;18.824;2024-01-30T03:13:54;35.29;33.62;46.61;;
67398;Laerm;57728;50.448;18.824;2024-01-30T03:15:56;35.80;33.84;52.74;;
67398;Laerm;57728;50.448;18.824;2024-01-30T03:17:58;35.14;33.76;41.58;;
67398;Laerm;57728;50.448;18.824;2024-01-30T03:19:59;35.00;33.73;40.09;;
67398;Laerm;57728;50.448;18.824;2024-01-30T03:22:01;35.44;33.82;51.85;;
67398;Laerm;57728;50.448;18.824;2024-01-30T03:24:02;35.29;34.03;47.52;;
67398;Laerm;57728;50.448;18.824;2024-01-30T03:26:04;35.05;33.94;39.10;;
67398;Laerm;57728;50.448;18.824;2024-01-30T03:28:11;35.01;33.95;36.68;;
67398;Laerm;57728;50.448;18.824;2024-01-30T03:30:12;35.14;33.83;42.45;;
67398;Laerm;57728;50.448;18.824;2024-01-30T03:32:13;35.87;33.85;50.01;;
67398;Laerm;57728;50.448;18.824;2024-01-30T03:34:15;35.10;33.92;41.48;;
67398;Laerm;57728;50.448;18.824;2024-01-30T03:36:17;35.05;33.86;39.71;;
67398;Laerm;57728;50.448;18.824;2024-01-30T03:38:18;35.33;34.00;43.93;;
67398;Laerm;57728;50.448;18.824;2024-01-30T03:40:20;35.12;33.82;41.40;;
67398;Laerm;57728;50.448;18.824;2024-01-30T03:42:21;35.62;34.04;52.86;;
67398;Laerm;57728;50.448;18.824;2024-01-30T03:44:23;35.32;33.93;47.34;;
67398;Laerm;57728;50.448;18.824;2024-01-30T03:46:25;35.19;33.59;42.31;;
67398;Laerm;57728;50.448;18.824;2024-01-30T03:48:26;35.38;33.90;50.58;;
67398;Laerm;57728;50.448;18.824;2024-01-30T03:50:27;35.13;33.92;42.28;;
67398;Laerm;57728;50.448;18.824;2024-01-30T03:52:29;35.22;33.78;43.13;;
67398;Laerm;57728;50.448;18.824;2024-01-30T03:54:31;35.55;34.05;50.78;;
67398;Laerm;57728;50.448;18.824;2024-01-30T03:56:32;35.16;33.79;39.72;;
67398;Laerm;57728;50.448;18.824;2024-01-30T03:58:34;35.18;33.78;44.02;;
67398;Laerm;57728;50.448;18.824;2024-01-30T04:00:35;35.08;33.96;42.53;;
67398;Laerm;57728;50.448;18.824;2024-01-30T04:02:39;35.24;34.05;40.44;;
67398;Laerm;57728;50.448;18.824;2024-01-30T04:04:41;35.38;33.87;46.11;;
67398;Laerm;57728;50.448;18.824;2024-01-30T04:06:42;35.22;33.70;45.16;;
67398;Laerm;57728;50.448;18.824;2024-01-30T04:08:43;35.91;33.84;50.09;;
67398;Laerm;57728;50.448;18.824;2024-01-30T04:10:47;35.03;33.94;42.03;;
67398;Laerm;57728;50.448;18.824;2024-01-30T04:12:48;35.20;33.82;45.77;;
67398;Laerm;57728;50.448;18.824;2024-01-30T04:14:49;35.57;34.01;48.04;;
67398;Laerm;57728;50.448;18.824;2024-01-30T04:16:51;36.29;33.97;53.76;;
67398;Laerm;57728;50.448;18.824;2024-01-30T04:18:55;35.05;33.85;40.33;;
67398;Laerm;57728;50.448;18.824;2024-01-30T04:20:56;35.18;33.72;42.33;;
67398;Laerm;57728;50.448;18.824;2024-01-30T04:22:58;36.09;33.93;51.40;;
67398;Laerm;57728;50.448;18.824;2024-01-30T04:24:59;35.09;33.89;42.93;;
67398;Laerm;57728;50.448;18.824;2024-01-30T04:27:01;35.81;33.87;53.89;;
67398;Laerm;57728;50.448;18.824;2024-01-30T04:29:03;35.31;34.02;42.33;;
67398;Laerm;57728;50.448;18.824;2024-01-30T04:31:04;35.24;33.75;43.74;;
67398;Laerm;57728;50.448;18.824;2024-01-30T04:33:05;35.24;33.97;46.83;;
67398;Laerm;57728;50.448;18.824;2024-01-30T04:35:07;35.36;33.85;45.96;;
67398;Laerm;57728;50.448;18.824;2024-01-30T04:37:08;35.72;33.76;50.08;;
67398;Laerm;57728;50.448;18.824;2024-01-30T04:39:09;35.62;34.06;47.84;;
67398;Laerm;57728;50.448;18.824;2024-01-30T04:41:11;35.89;34.05;50.76;;
67398;Laerm;57728;50.448;18.824;2024-01-30T04:43:12;35.11;33.64;43.01;;
67398;Laerm;57728;50.448;18.824;2024-01-30T04:45:14;35.43;33.93;48.36;;
67398;Laerm;57728;50.448;18.824;2024-01-30T04:47:16;35.10;33.59;47.30;;
67398;Laerm;57728;50.448;18.824;2024-01-30T04:49:17;35.17;33.65;43.63;;
67398;Laerm;57728;50.448;18.824;2024-01-30T04:51:18;35.41;33.83;48.69;;
67398;Laerm;57728;50.448;18.824;2024-01-30T04:53:20;35.32;33.88;45.43;;
67398;Laerm;57728;50.448;18.824;2024-01-30T04:55:21;35.12;33.75;42.85;;
67398;Laerm;57728;50.448;18.824;2024-01-30T04:57:22;35.07;33.79;42.00;;
67398;Laerm;57728;50.448;18.824;2024-01-30T04:59:24;35.03;34.04;37.31;;
67398;Laerm;57728;50.448;18.824;2024-01-30T05:01:25;35.25;33.92;45.69;;
67398;Laerm;57728;50.448;18.824;2024-01-30T05:03:27;35.39;33.72;48.61;;
67398;Laerm;57728;50.448;18.824;2024-01-30T05:05:29;35.39;34.04;48.42;;
67398;Laerm;57728;50.448;18.824;2024-01-30T05:07:30;35.15;33.78;44.26;;
67398;Laerm;57728;50.448;18.824;2024-01-30T05:09:31;35.41;33.91;48.15;;
67398;Laerm;57728;50.448;18.824;2024-01-30T05:11:40;35.08;33.88;41.66;;
67398;Laerm;57728;50.448;18.824;2024-01-30T05:13:41;35.41;33.88;44.21;;
67398;Laerm;57728;50.448;18.824;2024-01-30T05:15:42;35.50;33.82;51.58;;
67398;Laerm;57728;50.448;18.824;2024-01-30T05:17:44;35.74;34.01;54.76;;
67398;Laerm;57728;50.448;18.824;2024-01-30T05:19:46;35.63;33.84;51.17;;
67398;Laerm;57728;50.448;18.824;2024-01-30T05:21:47;35.40;33.64;48.00;;
67398;Laerm;57728;50.448;18.824;2024-01-30T05:23:49;35.43;33.74;45.84;;
67398;Laerm;57728;50.448;18.824;2024-01-30T05:25:50;35.06;33.90;41.13;;
67398;Laerm;57728;50.448;18.824;2024-01-30T05:27:52;35.41;33.89;45.54;;
67398;Laerm;57728;50.448;18.824;2024-01-30T05:29:54;35.13;33.80;46.25;;
67398;Laerm;57728;50.448;18.824;2024-01-30T05:31:55;35.15;34.05;37.22;;
67398;Laerm;57728;50.448;18.824;2024-01-30T05:33:56;38.86;34.09;60.04;;
67398;Laerm;57728;50.448;18.824;2024-01-30T05:35:58;35.60;33.71;46.78;;
67398;Laerm;57728;50.448;18.824;2024-01-30T05:37:59;36.39;33.77;53.49;;
67398;Laerm;57728;50.448;18.824;2024-01-30T05:40:00;35.62;33.61;53.58;;
67398;Laerm;57728;50.448;18.824;2024-01-30T05:42:03;35.84;33.73;51.33;;
67398;Laerm;57728;50.448;18.824;2024-01-30T05:44:04;35.85;33.78;47.79;;
67398;Laerm;57728;50.448;18.824;2024-01-30T05:46:06;35.37;33.82;45.42;;
67398;Laerm;57728;50.448;18.824;2024-01-30T05:48:08;36.42;33.67;53.97;;
67398;Laerm;57728;50.448;18.824;2024-01-30T05:50:09;36.53;33.62;53.59;;
67398;Laerm;57728;50.448;18.824;2024-01-30T05:52:10;35.91;33.74;51.13;;
67398;Laerm;57728;50.448;18.824;2024-01-30T05:54:12;35.31;33.55;51.37;;
67398;Laerm;57728;50.448;18.824;2024-01-30T05:56:14;35.01;33.59;45.45;;
67398;Laerm;57728;50.448;18.824;2024-01-30T05:58:16;35.15;33.69;45.62;;
67398;Laerm;57728;50.448;18.824;2024-01-30T06:00:18;36.20;33.49;51.41;;
67398;Laerm;57728;50.448;18.824;2024-01-30T06:02:19;36.13;33.43;52.78;;
67398;Laerm;57728;50.448;18.824;2024-01-30T06:04:20;34.99;33.54;46.34;;
67398;Laerm;57728;50.448;18.824;2024-01-30T06:06:22;35.06;33.57;45.99;;
67398;Laerm;57728;50.448;18.824;2024-01-30T06:08:24;35.86;33.75;54.30;;
67398;Laerm;57728;50.448;18.824;2024-01-30T06:10:25;35.91;33.64;53.03;;
67398;Laerm;57728;50.448;18.824;2024-01-30T06:12:30;34.85;33.50;42.75;;
67398;Laerm;57728;50.448;18.824;2024-01-30T06:14:31;35.83;33.66;49.94;;
67398;Laerm;57728;50.448;18.824;2024-01-30T06:16:33;36.17;33.64;55.73;;
67398;Laerm;57728;50.448;18.824;2024-01-30T06:18:35;35.35;33.67;48.38;;
67398;Laerm;57728;50.448;18.824;2024-01-30T06:20:37;35.09;33.41;43.29;;
67398;Laerm;57728;50.448;18.824;2024-01-30T06:22:39;35.29;33.72;50.29;;
67398;Laerm;57728;50.448;18.824;2024-01-30T06:24:41;35.06;33.75;46.53;;
67398;Laerm;57728;50.448;18.824;2024-01-30T06:26:42;35.44;33.72;50.47;;
67398;Laerm;57728;50.448;18.824;2024-01-30T06:28:43;36.01;33.54;50.24;;
67398;Laerm;57728;50.448;18.824;2024-01-30T06:30:46;35.53;33.84;48.92;;
67398;Laerm;57728;50.448;18.824;2024-01-30T06:32:47;36.13;33.79;49.94;;
67398;Laerm;57728;50.448;18.824;2024-01-30T06:34:49;35.79;33.56;51.22;;
67398;Laerm;57728;50.448;18.824;2024-01-30T06:36:51;35.08;33.58;43.41;;
67398;Laerm;57728;50.448;18.824;2024-01-30T06:38:52;35.52;33.61;51.80;;
67398;Laerm;57728;50.448;18.824;2024-01-30T06:40:53;35.83;33.44;51.78;;
67398;Laerm;57728;50.448;18.824;2024-01-30T06:42:55;35.38;33.63;47.21;;
67398;Laerm;57728;50.448;18.824;2024-01-30T06:44:56;35.32;33.83;44.77;;
67398;Laerm;57728;50.448;18.824;2024-01-30T06:46:57;35.06;33.51;43.01;;
67398;Laerm;57728;50.448;18.824;2024-01-30T06:49:01;35.70;33.66;49.14;;
67398;Laerm;57728;50.448;18.824;2024-01-30T06:51:02;35.57;33.56;52.85;;
67398;Laerm;57728;50.448;18.824;2024-01-30T06:53:03;35.81;33.82;50.21;;
67398;Laerm;57728;50.448;18.824;2024-01-30T06:55:06;35.37;33.88;45.48;;
67398;Laerm;57728;50.448;18.824;2024-01-30T06:57:08;35.19;33.57;44.68;;
67398;Laerm;57728;50.448;18.824;2024-01-30T06:59:12;35.71;33.68;50.89;;
67398;Laerm;57728;50.448;18.824;2024-01-30T07:01:15;35.87;33.75;51.35;;
67398;Laerm;57728;50.448;18.824;2024-01-30T07:03:16;35.93;33.55;45.99;;
67398;Laerm;57728;50.448;18.824;2024-01-30T07:05:17;34.98;33.50;49.43;;
67398;Laerm;57728;50.448;18.824;2024-01-30T07:07:19;34.97;33.34;47.38;;
67398;Laerm;57728;50.448;18.824;2024-01-30T07:09:21;35.29;33.50;47.36;;
67398;Laerm;57728;50.448;18.824;2024-01-30T07:11:24;34.83;33.39;42.99;;
67398;Laerm;57728;50.448;18.824;2024-01-30T07:13:27;35.16;33.58;44.84;;
67398;Laerm;57728;50.448;18.824;2024-01-30T07:15:29;35.43;33.59;51.54;;
67398;Laerm;57728;50.448;18.824;2024-01-30T07:17:30;35.70;33.66;48.61;;
67398;Laerm;57728;50.448;18.824;2024-01-30T07:19:32;35.85;33.70;51.37;;
67398;Laerm;57728;50.448;18.824;2024-01-30T07:21:33;37.27;33.46;62.22;;
67398;Laerm;57728;50.448;18.824;2024-01-30T07:23:35;35.32;33.32;44.10;;
67398;Laerm;57728;50.448;18.824;2024-01-30T07:25:37;35.30;33.61;53.73;;
67398;Laerm;57728;50.448;18.824;2024-01-30T07:27:38;36.48;33.52;51.65;;
67398;Laerm;57728;50.448;18.824;2024-01-30T07:29:39;35.80;33.50;49.97;;
67398;Laerm;57728;50.448;18.824;2024-01-30T07:31:41;35.15;33.30;54.80;;
67398;Laerm;57728;50.448;18.824;2024-01-30T07:33:42;36.30;33.51;54.02;;
67398;Laerm;57728;50.448;18.824;2024-01-30T07:35:45;36.38;33.49;58.02;;
67398;Laerm;57728;50.448;18.824;2024-01-30T07:37:47;36.33;33.34;55.76;;
67398;Laerm;57728;50.448;18.824;2024-01-30T07:39:48;38.57;33.40;64.52;;
67398;Laerm;57728;50.448;18.824;2024-01-30T07:41:50;34.76;33.48;42.77;;
67398;Laerm;57728;50.448;18.824;2024-01-30T07:43:52;38.37;33.24;58.30;;
67398;Laerm;57728;50.448;18.824;2024-01-30T07:45:54;35.18;33.48;51.24;;
67398;Laerm;57728;50.448;18.824;2024-01-30T07:47:55;35.17;33.31;45.92;;
67398;Laerm;57728;50.448;18.824;2024-01-30T07:49:57;35.21;33.19;49.00;;
67398;Laerm;57728;50.448;18.824;2024-01-30T07:51:58;36.79;33.11;61.54;;
67398;Laerm;57728;50.448;18.824;2024-01-30T07:54:02;35.25;32.91;51.30;;
67398;Laerm;57728;50.448;18.824;2024-01-30T07:56:05;35.58;32.91;52.77;;
67398;Laerm;57728;50.448;18.824;2024-01-30T07:58:09;36.00;32.92;53.00;;
67398;Laerm;57728;50.448;18.824;2024-01-30T08:00:11;34.19;32.67;41.20;;
67398;Laerm;57728;50.448;18.824;2024-01-30T08:02:13;35.92;32.71;53.47;;
67398;Laerm;57728;50.448;18.824;2024-01-30T08:04:14;38.40;32.60;58.85;;
67398;Laerm;57728;50.448;18.824;2024-01-30T08:06:16;35.49;32.36;53.15;;
67398;Laerm;57728;50.448;18.824;2024-01-30T08:08:18;36.23;32.69;55.81;;
67398;Laerm;57728;50.448;18.824;2024-01-30T08:10:20;34.40;32.66;45.55;;
67398;Laerm;57728;50.448;18.824;2024-01-30T08:12:21;35.34;32.49;51.37;;
67398;Laerm;57728;50.448;18.824;2024-01-30T08:14:23;34.71;32.50;48.40;;
67398;Laerm;57728;50.448;18.824;2024-01-30T08:16:24;33.73;32.38;40.96;;
67398;Laerm;57728;50.448;18.824;2024-01-30T08:18:25;34.25;32.51;48.50;;
67398;Laerm;57728;50.448;18.824;2024-01-30T08:20:28;34.49;32.33;52.10;;
67398;Laerm;57728;50.448;18.824;2024-01-30T08:22:29;34.06;32.40;48.05;;
67398;Laerm;57728;50.448;18.824;2024-01-30T08:24:30;34.48;32.47;48.32;;
67398;Laerm;57728;50.448;18.824;2024-01-30T08:26:33;34.55;32.27;50.47;;
67398;Laerm;57728;50.448;18.824;2024-01-30T08:28:34;35.11;32.22;53.89;;
67398;Laerm;57728;50.448;18.824;2024-01-30T08:30:35;34.26;32.28;46.99;;
67398;Laerm;57728;50.448;18.824;2024-01-30T08:32:37;33.79;32.30;42.83;;
67398;Laerm;57728;50.448;18.824;2024-01-30T08:34:38;33.99;32.20;43.51;;
67398;Laerm;57728;50.448;18.824;2024-01-30T08:36:39;34.03;32.20;49.18;;
67398;Laerm;57728;50.448;18.824;2024-01-30T08:38:41;34.16;32.26;42.80;;
67398;Laerm;57728;50.448;18.824;2024-01-30T08:40:42;34.18;32.42;48.35;;
67398;Laerm;57728;50.448;18.824;2024-01-30T08:42:44;34.09;32.47;44.39;;
67398;Laerm;57728;50.448;18.824;2024-01-30T08:44:46;34.06;32.54;45.59;;
67398;Laerm;57728;50.448;18.824;2024-01-30T08:46:47;34.60;32.47;55.17;;
67398;Laerm;57728;50.448;18.824;2024-01-30T08:48:48;34.23;32.43;54.57;;
67398;Laerm;57728;50.448;18.824;2024-01-30T08:50:50;34.06;32.34;45.35;;
67398;Laerm;57728;50.448;18.824;2024-01-30T08:52:54;34.94;32.41;53.85;;
67398;Laerm;57728;50.448;18.824;2024-01-30T08:54:55;34.91;32.25;54.92;;
67398;Laerm;57728;50.448;18.824;2024-01-30T08:56:57;35.52;32.50;53.32;;
67398;Laerm;57728;50.448;18.824;2024-01-30T08:58:59;34.50;32.38;45.68;;
67398;Laerm;57728;50.448;18.824;2024-01-30T09:01:00;35.05;32.21;53.08;;
67398;Laerm;57728;50.448;18.824;2024-01-30T09:03:03;35.57;32.41;50.95;;
67398;Laerm;57728;50.448;18.824;2024-01-30T09:05:04;33.83;32.43;40.68;;
67398;Laerm;57728;50.448;18.824;2024-01-30T09:07:05;34.77;32.45;50.76;;
67398;Laerm;57728;50.448;18.824;2024-01-30T09:09:10;35.38;32.51;50.63;;
67398;Laerm;57728;50.448;18.824;2024-01-30T09:11:13;34.70;32.48;51.16;;
67398;Laerm;57728;50.448;18.824;2024-01-30T09:13:14;34.05;32.44;44.59;;
67398;Laerm;57728;50.448;18.824;2024-01-30T09:15:17;37.01;32.52;47.54;;
67398;Laerm;57728;50.448;18.824;2024-01-30T09:17:18;36.99;32.39;55.85;;
67398;Laerm;57728;50.448;18.824;2024-01-30T09:19:19;35.35;32.59;48.53;;
67398;Laerm;57728;50.448;18.824;2024-01-30T09:21:21;33.92;32.16;44.11;;
67398;Laerm;57728;50.448;18.824;2024-01-30T09:23:22;34.41;32.53;50.63;;
67398;Laerm;57728;50.448;18.824;2024-01-30T09:25:23;34.00;32.44;44.52;;
67398;Laerm;57728;50.448;18.824;2024-01-30T09:27:25;34.10;32.46;43.14;;
67398;Laerm;57728;50.448;18.824;2024-01-30T09:29:27;34.28;32.49;47.53;;
67398;Laerm;57728;50.448;18.824;2024-01-30T09:31:28;34.65;32.23;47.59;;
67398;Laerm;57728;50.448;18.824;2024-01-30T09:33:30;34.48;32.29;45.41;;
67398;Laerm;57728;50.448;18.824;2024-01-30T09:35:31;34.57;32.21;48.10;;
67398;Laerm;57728;50.448;18.824;2024-01-30T09:37:32;34.34;32.49;49.50;;
67398;Laerm;57728;50.448;18.824;2024-01-30T09:39:35;34.33;32.33;51.44;;
67398;Laerm;57728;50.448;18.824;2024-01-30T09:41:55;33.80;32.34;41.42;;
67398;Laerm;57728;50.448;18.824;2024-01-30T09:44:06;33.68;32.37;41.63;;
67398;Laerm;57728;50.448;18.824;2024-01-30T09:46:12;33.70;32.41;45.91;;
67398;Laerm;57728;50.448;18.824;2024-01-30T09:48:19;33.75;32.17;41.92;;
67398;Laerm;57728;50.448;18.824;2024-01-30T09:50:20;34.61;32.44;45.62;;
67398;Laerm;57728;50.448;18.824;2024-01-30T09:52:22;35.18;32.35;51.16;;
67398;Laerm;57728;50.448;18.824;2024-01-30T09:54:23;35.87;32.26;58.22;;
67398;Laerm;57728;50.448;18.824;2024-01-30T09:56:24;35.19;32.70;49.21;;
67398;Laerm;57728;50.448;18.824;2024-01-30T09:58:26;35.14;32.46;48.65;;
67398;Laerm;57728;50.448;18.824;2024-01-30T10:00:27;35.27;32.60;50.52;;
67398;Laerm;57728;50.448;18.824;2024-01-30T10:02:28;36.25;32.57;53.47;;
67398;Laerm;57728;50.448;18.824;2024-01-30T10:04:30;35.82;32.57;51.85;;
67398;Laerm;57728;50.448;18.824;2024-01-30T10:06:31;34.02;32.57;41.41;;
67398;Laerm;57728;50.448;18.824;2024-01-30T10:08:33;35.79;32.38;57.22;;
67398;Laerm;57728;50.448;18.824;2024-01-30T10:10:35;34.57;32.52;48.80;;
67398;Laerm;57728;50.448;18.824;2024-01-30T10:12:39;34.14;32.36;45.24;;
67398;Laerm;57728;50.448;18.824;2024-01-30T10:14:42;34.78;32.48;50.69;;
67398;Laerm;57728;50.448;18.824;2024-01-30T10:16:46;34.94;32.43;51.81;;
67398;Laerm;57728;50.448;18.824;2024-01-30T10:18:47;33.64;32.27;45.29;;
67398;Laerm;57728;50.448;18.824;2024-01-30T10:20:48;34.07;32.38;48.01;;
67398;Laerm;57728;50.448;18.824;2024-01-30T10:22:50;34.08;32.31;46.93;;
67398;Laerm;57728;50.448;18.824;2024-01-30T10:24:53;33.90;32.33;47.00;;
67398;Laerm;57728;50.448;18.824;2024-01-30T10:26:54;34.14;32.19;45.80;;
67398;Laerm;57728;50.448;18.824;2024-01-30T10:28:56;35.18;32.54;49.80;;
67398;Laerm;57728;50.448;18.824;2024-01-30T10:31:01;34.59;32.21;49.23;;
67398;Laerm;57728;50.448;18.824;2024-01-30T10:33:04;34.46;32.58;47.05;;
67398;Laerm;57728;50.448;18.824;2024-01-30T10:35:06;36.39;32.45;53.45;;
67398;Laerm;57728;50.448;18.824;2024-01-30T10:37:10;35.50;32.36;51.79;;
67398;Laerm;57728;50.448;18.824;2024-01-30T10:39:22;34.60;32.33;49.33;;
67398;Laerm;57728;50.448;18.824;2024-01-30T10:41:27;35.36;32.47;53.33;;
67398;Laerm;57728;50.448;18.824;2024-01-30T10:43:35;33.86;32.40;41.97;;
67398;Laerm;57728;50.448;18.824;2024-01-30T10:45:42;33.63;32.40;39.32;;
67398;Laerm;57728;50.448;18.824;2024-01-30T10:47:50;35.20;32.30;51.85;;
67398;Laerm;57728;50.448;18.824;2024-01-30T10:49:55;35.71;32.46;54.22;;
67398;Laerm;57728;50.448;18.824;2024-01-30T10:51:58;35.96;32.05;59.75;;
67398;Laerm;57728;50.448;18.824;2024-01-30T10:54:01;34.17;32.42;48.65;;
67398;Laerm;57728;50.448;18.824;2024-01-30T10:56:04;34.08;32.61;47.65;;
67398;Laerm;57728;50.448;18.824;2024-01-30T10:58:07;36.55;32.45;55.22;;
67398;Laerm;57728;50.448;18.824;2024-01-30T11:00:14;38.88;32.79;59.52;;
67398;Laerm;57728;50.448;18.824;2024-01-30T11:02:17;36.08;32.67;52.74;;
67398;Laerm;57728;50.448;18.824;2024-01-30T11:04:19;33.63;32.07;39.50;;
67398;Laerm;57728;50.448;18.824;2024-01-30T11:06:25;34.03;32.56;44.25;;
67398;Laerm;57728;50.448;18.824;2024-01-30T11:08:27;34.00;32.42;45.42;;
67398;Laerm;57728;50.448;18.824;2024-01-30T11:10:31;33.81;32.35;46.13;;
67398;Laerm;57728;50.448;18.824;2024-01-30T11:12:39;34.13;32.38;51.32;;